Time;durP1;ratioP1;P1;durP2;ratioP2;P2;SDS_P1;SDS_P2;PMS_P1;PMS_P2;Temp;Humidity;BMP_temperature;BMP_pressure;BME280_temperature;BME280_humidity;BME280_pressure;Samples;Min_cycle;Max_cycle;Signal;HPM_P1;HPM_P2
2022/03/29 00:01:55;;;;;;;21.70;15.65;;;;;;;;;;5086537;28;20253;-70
2022/03/29 00:04:22;;;;;;;22.88;16.83;;;;;;;;;;5082960;28;20146;-70
2022/03/29 00:06:48;;;;;;;18.30;16.17;;;;;;;;;;5063762;28;20422;-70
2022/03/29 00:09:14;;;;;;;18.80;16.40;;;;;;;;;;5068822;28;20036;-70
2022/03/29 00:11:39;;;;;;;16.98;15.32;;;;;;;;;;5077923;28;20047;-69
2022/03/29 00:14:06;;;;;;;22.83;16.10;;;;;;;;;;5074988;28;20036;-69
2022/03/29 00:16:32;;;;;;;23.70;17.52;;;;;;;;;;5079623;28;20453;-70
2022/03/29 00:18:58;;;;;;;22.17;16.60;;;;;;;;;;5079237;28;20380;-69
2022/03/29 00:21:24;;;;;;;21.80;15.98;;;;;;;;;;5053723;28;20550;-70
2022/03/29 00:23:50;;;;;;;18.13;15.90;;;;;;;;;;5081315;28;20039;-70
2022/03/29 00:26:16;;;;;;;21.27;16.20;;;;;;;;;;5073852;28;20032;-70
2022/03/29 00:28:42;;;;;;;18.50;16.27;;;;;;;;;;5076035;28;20036;-69
2022/03/29 00:31:10;;;;;;;21.75;17.05;;;;;;;;;;5067306;28;20043;-70
2022/03/29 00:33:36;;;;;;;23.70;16.73;;;;;;;;;;5080541;28;20080;-70
2022/03/29 00:36:01;;;;;;;19.50;15.70;;;;;;;;;;5084472;28;20119;-70
2022/03/29 00:38:27;;;;;;;18.92;16.45;;;;;;;;;;5075415;28;20047;-70
2022/03/29 00:40:53;;;;;;;19.10;15.75;;;;;;;;;;5080317;28;20302;-70
2022/03/29 00:43:19;;;;;;;17.38;15.52;;;;;;;;;;5084083;28;20123;-70
2022/03/29 00:45:45;;;;;;;18.05;15.48;;;;;;;;;;5081334;28;20657;-70
2022/03/29 00:48:13;;;;;;;18.30;15.27;;;;;;;;;;5063979;28;20035;-69
2022/03/29 00:50:40;;;;;;;19.25;16.00;;;;;;;;;;5083549;28;20044;-70
2022/03/29 00:53:06;;;;;;;21.60;15.93;;;;;;;;;;5068527;28;20371;-70
2022/03/29 00:55:32;;;;;;;19.30;15.43;;;;;;;;;;5082106;28;20353;-69
2022/03/29 00:58:01;;;;;;;17.25;15.45;;;;;;;;;;5083455;28;20028;-69
2022/03/29 01:00:27;;;;;;;19.98;15.90;;;;;;;;;;5078604;28;20047;-69
2022/03/29 01:02:53;;;;;;;19.60;16.13;;;;;;;;;;5086627;28;20040;-69
2022/03/29 01:05:18;;;;;;;19.02;14.98;;;;;;;;;;5086558;28;20028;-70
2022/03/29 01:07:44;;;;;;;19.23;15.52;;;;;;;;;;5069003;28;20533;-70
2022/03/29 01:10:10;;;;;;;17.17;15.45;;;;;;;;;;5090222;28;20032;-70
2022/03/29 01:12:37;;;;;;;19.95;15.93;;;;;;;;;;5065112;28;20099;-70
2022/03/29 01:15:06;;;;;;;23.10;16.15;;;;;;;;;;5080953;28;20441;-70
2022/03/29 01:17:38;;;;;;;22.05;15.95;;;;;;;;;;5062101;28;20063;-69
2022/03/29 01:20:18;;;;;;;20.45;15.80;;;;;;;;;;5089982;28;20036;-69
2022/03/29 01:22:46;;;;;;;17.33;15.30;;;;;;;;;;5047628;28;20064;-69
2022/03/29 01:25:17;;;;;;;22.67;16.77;;;;;;;;;;5082764;28;20498;-70
2022/03/29 01:27:45;;;;;;;18.20;15.40;;;;;;;;;;5082577;28;20036;-69
2022/03/29 01:30:11;;;;;;;18.52;15.65;;;;;;;;;;5071048;28;20028;-69
2022/03/29 01:32:40;;;;;;;17.35;15.55;;;;;;;;;;5086106;28;20473;-70
2022/03/29 01:35:06;;;;;;;17.35;15.52;;;;;;;;;;5084303;28;20111;-69
2022/03/29 01:37:34;;;;;;;18.95;15.05;;;;;;;;;;5088630;28;20039;-69
2022/03/29 01:40:04;;;;;;;18.35;15.60;;;;;;;;;;5076421;28;20479;-69
2022/03/29 01:42:30;;;;;;;19.02;15.70;;;;;;;;;;5054301;28;20077;-69
2022/03/29 01:44:55;;;;;;;18.63;15.85;;;;;;;;;;5085125;28;20495;-69
2022/03/29 01:47:21;;;;;;;20.30;15.38;;;;;;;;;;5086726;28;20027;-69
2022/03/29 01:49:47;;;;;;;18.27;15.80;;;;;;;;;;5077934;28;20039;-69
2022/03/29 01:52:13;;;;;;;18.52;15.35;;;;;;;;;;5090308;28;20036;-69
2022/03/29 01:54:39;;;;;;;19.88;15.13;;;;;;;;;;5082886;28;20059;-69
2022/03/29 01:57:04;;;;;;;19.02;15.80;;;;;;;;;;5084422;28;20158;-69
2022/03/29 02:00:30;;;;;;;17.63;15.57;;;;;;;;;;5081063;28;20425;-69
2022/03/29 02:02:15;;;;;;;17.20;15.40;;;;;;;;;;5049431;28;20070;-69
2022/03/29 02:04:41;;;;;;;23.13;16.17;;;;;;;;;;5084746;28;20040;-69
2022/03/29 02:07:08;;;;;;;17.13;15.32;;;;;;;;;;5080242;28;20107;-69
2022/03/29 02:09:33;;;;;;;19.15;15.82;;;;;;;;;;5071580;28;20047;-69
2022/03/29 02:11:59;;;;;;;18.63;15.48;;;;;;;;;;5085701;28;20040;-69
2022/03/29 02:14:25;;;;;;;21.90;16.08;;;;;;;;;;5069148;28;20035;-69
2022/03/29 02:16:51;;;;;;;21.13;15.20;;;;;;;;;;5087277;28;20058;-69
2022/03/29 02:19:16;;;;;;;18.98;15.80;;;;;;;;;;5086130;28;20390;-69
2022/03/29 02:21:42;;;;;;;20.10;15.77;;;;;;;;;;5087121;28;20281;-69
2022/03/29 02:24:07;;;;;;;18.33;15.57;;;;;;;;;;5086525;28;20513;-69
2022/03/29 02:26:33;;;;;;;20.15;15.65;;;;;;;;;;5081996;28;20038;-69
2022/03/29 02:28:59;;;;;;;19.27;15.98;;;;;;;;;;5085328;28;20032;-70
2022/03/29 02:31:24;;;;;;;16.60;14.75;;;;;;;;;;5077582;28;20032;-69
2022/03/29 02:33:50;;;;;;;24.05;16.33;;;;;;;;;;5082036;28;20122;-69
2022/03/29 02:36:16;;;;;;;19.15;15.82;;;;;;;;;;5074920;28;20073;-69
2022/03/29 02:38:41;;;;;;;20.58;15.05;;;;;;;;;;5087608;28;20032;-69
2022/03/29 02:41:08;;;;;;;18.77;15.15;;;;;;;;;;5078794;28;20040;-69
2022/03/29 02:43:34;;;;;;;17.58;14.90;;;;;;;;;;5071445;28;20043;-69
2022/03/29 02:45:59;;;;;;;20.77;15.35;;;;;;;;;;5086018;28;20035;-69
2022/03/29 02:48:25;;;;;;;20.33;15.77;;;;;;;;;;5085603;28;20355;-69
2022/03/29 02:50:51;;;;;;;17.88;15.55;;;;;;;;;;5078331;28;20126;-69
2022/03/29 02:53:17;;;;;;;21.02;15.73;;;;;;;;;;5079176;28;20029;-70
2022/03/29 02:55:43;;;;;;;22.55;16.00;;;;;;;;;;5079314;28;20033;-69
2022/03/29 02:58:09;;;;;;;16.75;14.80;;;;;;;;;;5079672;28;20025;-69
2022/03/29 03:00:35;;;;;;;21.33;16.25;;;;;;;;;;5078702;28;20059;-69
2022/03/29 03:03:03;;;;;;;24.88;15.73;;;;;;;;;;5089937;28;20066;-69
2022/03/29 03:05:28;;;;;;;19.75;15.85;;;;;;;;;;5097417;28;20032;-69
2022/03/29 03:07:54;;;;;;;19.48;15.45;;;;;;;;;;5073848;28;20375;-69
2022/03/29 03:10:20;;;;;;;17.95;15.82;;;;;;;;;;5063488;28;20028;-69
2022/03/29 03:12:48;;;;;;;19.58;15.18;;;;;;;;;;5067763;28;20035;-70
2022/03/29 03:15:16;;;;;;;22.88;16.13;;;;;;;;;;5082774;28;20028;-69
2022/03/29 03:17:42;;;;;;;20.55;15.82;;;;;;;;;;5083751;28;20039;-69
2022/03/29 03:20:08;;;;;;;18.05;15.48;;;;;;;;;;5084556;28;20036;-69
2022/03/29 03:22:40;;;;;;;21.33;15.73;;;;;;;;;;5055257;28;20495;-69
2022/03/29 03:25:06;;;;;;;19.42;15.93;;;;;;;;;;5078063;28;20873;-69
2022/03/29 03:27:34;;;;;;;18.40;15.63;;;;;;;;;;5082167;28;20173;-69
2022/03/29 03:30:00;;;;;;;17.73;15.27;;;;;;;;;;5078851;28;20033;-69
2022/03/29 03:32:26;;;;;;;17.10;15.30;;;;;;;;;;5070156;28;20121;-69
2022/03/29 03:34:52;;;;;;;20.08;15.60;;;;;;;;;;5085689;28;20055;-69
2022/03/29 03:37:17;;;;;;;19.90;14.65;;;;;;;;;;5083261;28;20032;-69
2022/03/29 03:39:43;;;;;;;18.00;15.07;;;;;;;;;;5078046;28;20248;-69
2022/03/29 03:42:12;;;;;;;23.20;16.30;;;;;;;;;;5068657;28;20413;-69
2022/03/29 03:44:38;;;;;;;17.23;15.40;;;;;;;;;;5084588;28;20204;-69
2022/03/29 03:47:07;;;;;;;21.42;15.43;;;;;;;;;;5080210;28;20051;-69
2022/03/29 03:49:38;;;;;;;18.73;15.85;;;;;;;;;;5069162;28;20047;-69
2022/03/29 03:52:05;;;;;;;18.85;15.38;;;;;;;;;;5083961;28;20059;-69
2022/03/29 03:54:37;;;;;;;17.23;15.43;;;;;;;;;;5083115;28;20067;-69
2022/03/29 03:57:04;;;;;;;19.58;16.40;;;;;;;;;;5079619;28;20036;-70
2022/03/29 03:59:30;;;;;;;18.65;16.75;;;;;;;;;;5064631;28;20040;-69
2022/03/29 04:01:56;;;;;;;17.23;15.45;;;;;;;;;;5085896;28;20044;-69
2022/03/29 04:04:22;;;;;;;21.67;16.77;;;;;;;;;;5081025;28;20040;-69
2022/03/29 04:06:48;;;;;;;20.02;16.50;;;;;;;;;;5083013;28;20036;-69
2022/03/29 04:09:13;;;;;;;18.95;15.25;;;;;;;;;;5085017;28;20121;-69
2022/03/29 04:11:39;;;;;;;19.35;15.77;;;;;;;;;;5073396;28;20037;-69
2022/03/29 04:14:05;;;;;;;19.58;16.08;;;;;;;;;;5085295;28;20123;-69
2022/03/29 04:16:31;;;;;;;17.65;15.77;;;;;;;;;;5086310;28;20051;-69
2022/03/29 04:18:56;;;;;;;19.58;16.67;;;;;;;;;;5053285;28;20543;-69
2022/03/29 04:21:22;;;;;;;17.60;15.73;;;;;;;;;;5078151;28;20040;-69
2022/03/29 04:23:47;;;;;;;19.25;15.50;;;;;;;;;;5070139;28;20127;-69
2022/03/29 04:26:13;;;;;;;20.00;15.80;;;;;;;;;;5081671;28;20101;-69
2022/03/29 04:28:39;;;;;;;20.95;16.35;;;;;;;;;;5080077;28;20046;-69
2022/03/29 04:31:04;;;;;;;20.05;16.00;;;;;;;;;;5081001;28;20024;-69
2022/03/29 04:33:30;;;;;;;21.58;16.60;;;;;;;;;;5076755;28;20044;-69
2022/03/29 04:35:56;;;;;;;18.30;16.42;;;;;;;;;;5071326;22;20497;-70
2022/03/29 04:38:23;;;;;;;19.17;16.23;;;;;;;;;;5076726;28;20066;-70
2022/03/29 04:40:49;;;;;;;19.83;16.73;;;;;;;;;;5082285;28;20092;-69
2022/03/29 04:43:15;;;;;;;18.80;16.80;;;;;;;;;;5077517;28;20056;-69
2022/03/29 04:45:41;;;;;;;20.17;16.30;;;;;;;;;;5071551;28;20066;-70
2022/03/29 04:48:07;;;;;;;20.65;16.30;;;;;;;;;;5077620;28;20036;-70
2022/03/29 04:50:33;;;;;;;21.88;17.85;;;;;;;;;;5067859;28;20558;-69
2022/03/29 04:52:58;;;;;;;19.95;15.98;;;;;;;;;;5082936;28;20372;-69
2022/03/29 04:55:24;;;;;;;18.48;15.45;;;;;;;;;;5073925;28;20331;-70
2022/03/29 04:57:50;;;;;;;20.30;16.23;;;;;;;;;;5073153;28;20074;-69
2022/03/29 05:00:20;;;;;;;21.38;16.63;;;;;;;;;;5081742;28;20032;-69
2022/03/29 05:02:47;;;;;;;22.20;15.93;;;;;;;;;;5083457;28;20063;-69
2022/03/29 05:05:13;;;;;;;19.90;16.77;;;;;;;;;;5081507;28;20028;-69
2022/03/29 05:07:42;;;;;;;19.73;16.48;;;;;;;;;;5075449;28;20059;-68
2022/03/29 05:10:10;;;;;;;22.15;16.80;;;;;;;;;;5086904;28;20051;-69
2022/03/29 05:12:39;;;;;;;18.38;16.08;;;;;;;;;;5081539;28;20126;-69
2022/03/29 05:15:06;;;;;;;22.60;16.60;;;;;;;;;;5073318;28;20122;-69
2022/03/29 05:17:33;;;;;;;18.42;16.13;;;;;;;;;;5087320;28;20104;-69
2022/03/29 05:19:59;;;;;;;18.27;15.75;;;;;;;;;;5080467;28;20032;-71
2022/03/29 05:22:24;;;;;;;26.80;16.75;;;;;;;;;;5077783;28;20078;-70
2022/03/29 05:24:50;;;;;;;17.67;15.98;;;;;;;;;;5080288;28;20035;-70
2022/03/29 05:27:15;;;;;;;19.92;16.42;;;;;;;;;;5070740;28;20043;-70
2022/03/29 05:29:41;;;;;;;24.02;15.88;;;;;;;;;;5081585;28;20352;-70
2022/03/29 05:32:07;;;;;;;18.02;16.13;;;;;;;;;;5074960;28;20043;-70
2022/03/29 05:34:33;;;;;;;22.98;17.27;;;;;;;;;;5080458;28;20577;-69
2022/03/29 05:36:58;;;;;;;20.63;17.00;;;;;;;;;;5081343;28;20399;-69
2022/03/29 05:39:24;;;;;;;19.02;17.08;;;;;;;;;;5077978;28;20032;-70
2022/03/29 05:41:49;;;;;;;20.15;17.30;;;;;;;;;;5078869;28;20039;-69
2022/03/29 05:44:15;;;;;;;24.63;17.02;;;;;;;;;;5073092;28;20534;-70
2022/03/29 05:49:26;;;;;;;19.15;16.58;;;;;;;;;;5080798;28;20064;-69
2022/03/29 05:51:52;;;;;;;20.52;17.00;;;;;;;;;;5084088;28;20051;-69
2022/03/29 05:54:18;;;;;;;21.60;17.75;;;;;;;;;;5075271;28;20033;-70
2022/03/29 05:56:44;;;;;;;27.70;17.90;;;;;;;;;;5080488;28;20080;-69
2022/03/29 05:59:10;;;;;;;24.52;16.63;;;;;;;;;;5078588;28;20032;-70
2022/03/29 06:01:38;;;;;;;18.65;16.77;;;;;;;;;;5073293;28;20050;-70
2022/03/29 06:04:06;;;;;;;18.75;16.92;;;;;;;;;;5087550;28;20036;-69
2022/03/29 06:06:40;;;;;;;18.23;16.38;;;;;;;;;;5064527;28;20457;-70
2022/03/29 06:09:06;;;;;;;18.88;16.70;;;;;;;;;;5078093;28;20128;-69
2022/03/29 06:11:32;;;;;;;23.08;17.52;;;;;;;;;;5080510;28;20424;-69
2022/03/29 06:13:57;;;;;;;20.05;17.35;;;;;;;;;;5083833;28;20509;-69
2022/03/29 06:16:23;;;;;;;22.05;16.80;;;;;;;;;;5078005;28;20032;-70
2022/03/29 06:18:49;;;;;;;18.17;16.27;;;;;;;;;;5081271;28;20111;-70
2022/03/29 06:21:16;;;;;;;21.85;16.73;;;;;;;;;;5079817;28;20070;-69
2022/03/29 06:23:42;;;;;;;20.48;16.67;;;;;;;;;;5080231;28;20068;-69
2022/03/29 06:26:08;;;;;;;20.90;17.23;;;;;;;;;;5077837;28;20233;-70
2022/03/29 06:28:34;;;;;;;19.88;17.02;;;;;;;;;;5078283;28;20402;-70
2022/03/29 06:31:00;;;;;;;21.20;16.63;;;;;;;;;;5083971;28;20486;-70
2022/03/29 06:33:26;;;;;;;18.27;16.40;;;;;;;;;;5081031;28;20035;-70
2022/03/29 06:35:52;;;;;;;18.88;17.05;;;;;;;;;;5075296;28;20047;-70
2022/03/29 06:38:21;;;;;;;23.20;17.40;;;;;;;;;;5078673;28;20055;-70
2022/03/29 06:40:50;;;;;;;21.33;17.40;;;;;;;;;;5084881;28;20165;-69
2022/03/29 06:43:16;;;;;;;22.30;18.58;;;;;;;;;;5087649;28;20036;-70
2022/03/29 06:45:42;;;;;;;22.50;17.45;;;;;;;;;;5085167;28;20047;-69
2022/03/29 06:48:08;;;;;;;29.33;18.33;;;;;;;;;;5078086;28;20043;-69
2022/03/29 06:50:35;;;;;;;21.48;18.10;;;;;;;;;;5085620;28;20032;-69
2022/03/29 06:53:01;;;;;;;25.48;18.70;;;;;;;;;;5080666;28;20091;-69
2022/03/29 06:55:28;;;;;;;19.88;17.88;;;;;;;;;;5083394;28;20036;-70
2022/03/29 06:57:54;;;;;;;20.08;17.88;;;;;;;;;;5085509;28;20096;-70
2022/03/29 07:00:21;;;;;;;22.05;19.58;;;;;;;;;;5070910;28;20046;-69
2022/03/29 07:02:48;;;;;;;20.13;17.90;;;;;;;;;;5089454;28;20123;-69
2022/03/29 07:05:14;;;;;;;21.13;18.30;;;;;;;;;;5087543;28;20081;-69
2022/03/29 07:07:41;;;;;;;19.95;17.92;;;;;;;;;;5080161;28;20043;-70
2022/03/29 07:12:54;;;;;;;28.08;18.63;;;;;;;;;;5089255;28;20495;-70
2022/03/29 07:15:20;;;;;;;25.95;19.35;;;;;;;;;;5076539;28;20462;-69
2022/03/29 07:17:46;;;;;;;20.73;18.55;;;;;;;;;;5073028;28;20028;-70
2022/03/29 07:20:13;;;;;;;22.27;19.58;;;;;;;;;;5084143;28;20101;-70
2022/03/29 07:22:39;;;;;;;23.13;19.85;;;;;;;;;;5087726;28;20032;-70
2022/03/29 07:25:05;;;;;;;22.35;19.30;;;;;;;;;;5079243;28;20198;-69
2022/03/29 07:27:31;;;;;;;21.88;18.63;;;;;;;;;;5081771;28;20056;-70
2022/03/29 07:29:57;;;;;;;25.45;19.67;;;;;;;;;;5080968;28;20094;-70
2022/03/29 07:32:23;;;;;;;21.95;18.98;;;;;;;;;;5073831;28;20442;-70
2022/03/29 07:34:48;;;;;;;24.38;18.65;;;;;;;;;;5080468;28;20082;-70
2022/03/29 07:37:14;;;;;;;23.48;18.63;;;;;;;;;;5080186;28;20077;-69
2022/03/29 07:39:41;;;;;;;24.00;19.48;;;;;;;;;;5076638;28;20027;-69
2022/03/29 07:42:07;;;;;;;25.13;18.90;;;;;;;;;;5082447;28;20491;-70
2022/03/29 07:44:33;;;;;;;22.65;19.40;;;;;;;;;;5088402;28;20055;-71
2022/03/29 07:47:00;;;;;;;21.85;19.45;;;;;;;;;;5082612;28;20051;-70
2022/03/29 07:49:27;;;;;;;21.20;18.40;;;;;;;;;;5074551;28;20446;-71
2022/03/29 07:51:53;;;;;;;22.35;19.25;;;;;;;;;;5081950;28;20033;-70
2022/03/29 07:54:18;;;;;;;22.27;19.45;;;;;;;;;;5080662;28;20440;-70
2022/03/29 07:56:44;;;;;;;26.85;20.42;;;;;;;;;;5079495;28;20033;-70
2022/03/29 07:59:09;;;;;;;22.65;19.80;;;;;;;;;;5084124;28;20027;-70
2022/03/29 08:01:36;;;;;;;24.98;19.40;;;;;;;;;;5081281;28;20223;-70
2022/03/29 08:04:03;;;;;;;22.65;20.25;;;;;;;;;;5082149;28;20387;-70
2022/03/29 08:06:28;;;;;;;25.67;19.77;;;;;;;;;;5080467;28;20116;-70
2022/03/29 08:08:54;;;;;;;25.23;19.48;;;;;;;;;;5082766;28;20446;-70
2022/03/29 08:11:22;;;;;;;23.55;18.95;;;;;;;;;;5080346;28;20512;-71
2022/03/29 08:13:49;;;;;;;26.55;19.35;;;;;;;;;;5079503;28;20407;-70
2022/03/29 08:16:15;;;;;;;22.95;18.63;;;;;;;;;;5086154;28;20446;-70
2022/03/29 08:18:41;;;;;;;23.38;18.58;;;;;;;;;;5085862;28;20024;-70
2022/03/29 08:21:48;;;;;;;23.58;18.92;;;;;;;;;;5078467;28;20036;-71
2022/03/29 08:23:54;;;;;;;26.52;18.50;;;;;;;;;;5080786;28;20036;-70
2022/03/29 08:26:19;;;;;;;23.88;18.60;;;;;;;;;;5077277;28;20047;-70
2022/03/29 08:28:46;;;;;;;19.58;17.55;;;;;;;;;;5093826;28;20024;-70
2022/03/29 08:31:12;;;;;;;20.92;18.75;;;;;;;;;;5082365;28;20020;-71
2022/03/29 08:33:38;;;;;;;21.27;18.73;;;;;;;;;;5085927;28;20066;-71
2022/03/29 08:36:04;;;;;;;23.25;18.65;;;;;;;;;;5085341;28;20056;-71
2022/03/29 08:38:30;;;;;;;27.55;19.67;;;;;;;;;;5085665;28;20113;-70
2022/03/29 08:40:58;;;;;;;27.20;20.55;;;;;;;;;;5083596;28;20069;-70
2022/03/29 08:43:27;;;;;;;25.88;18.65;;;;;;;;;;5085173;28;20039;-70
2022/03/29 08:45:53;;;;;;;20.35;18.27;;;;;;;;;;5085527;28;20326;-71
2022/03/29 08:48:27;;;;;;;21.50;19.20;;;;;;;;;;5086547;28;20084;-71
2022/03/29 08:50:53;;;;;;;23.80;19.77;;;;;;;;;;5082649;28;20074;-70
2022/03/29 08:53:22;;;;;;;22.35;19.13;;;;;;;;;;5074014;28;20036;-71
2022/03/29 08:55:48;;;;;;;24.35;19.88;;;;;;;;;;5080136;28;20024;-71
2022/03/29 08:58:17;;;;;;;21.85;19.50;;;;;;;;;;5065487;28;20032;-70
2022/03/29 09:00:45;;;;;;;23.33;19.50;;;;;;;;;;5085044;28;20047;-70
2022/03/29 09:03:14;;;;;;;23.25;19.33;;;;;;;;;;5077207;28;20298;-70
2022/03/29 09:05:39;;;;;;;23.73;19.60;;;;;;;;;;5079082;28;20434;-70
2022/03/29 09:08:09;;;;;;;26.42;20.60;;;;;;;;;;5077912;28;20035;-70
2022/03/29 09:10:49;;;;;;;27.58;20.77;;;;;;;;;;5072488;28;20040;-70
2022/03/29 09:13:29;;;;;;;23.92;20.27;;;;;;;;;;5083177;28;20040;-70
2022/03/29 09:15:58;;;;;;;26.27;20.10;;;;;;;;;;5072965;28;20128;-70
2022/03/29 09:18:24;;;;;;;22.85;20.15;;;;;;;;;;5077394;28;20044;-70
2022/03/29 09:21:25;;;;;;;22.65;19.80;;;;;;;;;;5075499;28;20040;-70
2022/03/29 09:24:07;;;;;;;22.60;20.35;;;;;;;;;;5086626;28;20479;-70
2022/03/29 09:26:33;;;;;;;25.70;19.45;;;;;;;;;;5075260;28;20106;-70
2022/03/29 09:28:59;;;;;;;25.95;19.50;;;;;;;;;;5068792;28;20576;-70
2022/03/29 09:31:27;;;;;;;26.50;19.30;;;;;;;;;;5076712;28;20611;-70
2022/03/29 09:34:18;;;;;;;26.40;19.92;;;;;;;;;;5080733;28;20384;-70
2022/03/29 09:36:48;;;;;;;28.30;19.65;;;;;;;;;;5068788;28;20028;-70
2022/03/29 09:39:44;;;;;;;25.50;20.08;;;;;;;;;;5079909;28;20487;-70
2022/03/29 09:42:20;;;;;;;30.08;19.45;;;;;;;;;;5063566;28;20066;-71
2022/03/29 09:44:48;;;;;;;24.20;19.73;;;;;;;;;;5087718;28;20127;-70
2022/03/29 09:47:20;;;;;;;28.02;20.27;;;;;;;;;;5078908;28;20514;-70
2022/03/29 09:50:09;;;;;;;25.23;19.13;;;;;;;;;;5076857;28;20114;-70
2022/03/29 09:52:43;;;;;;;;;;;;;;;;;;5082858;28;20077;-69
2022/03/29 09:55:15;;;;;;;25.45;19.52;;;;;;;;;;5082319;28;19913;-69
2022/03/29 09:57:46;;;;;;;22.27;19.75;;;;;;;;;;5076338;28;20052;-70
2022/03/29 10:00:16;;;;;;;25.70;19.25;;;;;;;;;;5073114;28;20459;-70
2022/03/29 10:02:45;;;;;;;21.52;19.25;;;;;;;;;;5079648;28;20036;-70
2022/03/29 10:05:12;;;;;;;26.63;19.60;;;;;;;;;;5076658;28;20112;-70
2022/03/29 10:10:45;;;;;;;25.67;20.08;;;;;;;;;;5083123;28;20489;-70
2022/03/29 10:13:11;;;;;;;25.52;18.63;;;;;;;;;;5079052;28;20040;-71
2022/03/29 10:15:39;;;;;;;26.08;19.65;;;;;;;;;;5076779;28;20028;-70
2022/03/29 10:18:05;;;;;;;24.15;18.98;;;;;;;;;;5079713;28;20601;-70
2022/03/29 10:20:31;;;;;;;21.63;18.58;;;;;;;;;;5081351;28;20040;-70
2022/03/29 10:22:58;;;;;;;24.15;18.48;;;;;;;;;;5082621;28;20410;-69
2022/03/29 10:25:24;;;;;;;24.23;19.05;;;;;;;;;;5078641;28;20097;-70
2022/03/29 10:27:50;;;;;;;23.63;18.80;;;;;;;;;;5078725;28;20028;-69
2022/03/29 10:30:42;;;;;;;25.90;19.00;;;;;;;;;;5082209;28;20036;-71
2022/03/29 10:33:37;;;;;;;27.77;18.85;;;;;;;;;;5074397;28;20495;-71
2022/03/29 10:36:14;;;;;;;21.23;18.75;;;;;;;;;;5023388;28;20091;-71
2022/03/29 10:38:48;;;;;;;22.92;19.73;;;;;;;;;;5024290;28;20033;-71
2022/03/29 10:41:26;;;;;;;22.35;18.77;;;;;;;;;;5021381;28;20508;-70
2022/03/29 10:44:05;;;;;;;20.85;18.65;;;;;;;;;;5022501;28;20159;-71
2022/03/29 10:46:41;;;;;;;22.08;18.95;;;;;;;;;;5016484;28;20116;-70
2022/03/29 10:49:32;;;;;;;25.15;19.00;;;;;;;;;;5018411;28;20311;-71
2022/03/29 10:52:06;;;;;;;28.10;19.67;;;;;;;;;;5017696;28;20124;-71
2022/03/29 10:54:36;;;;;;;22.48;18.85;;;;;;;;;;5022670;28;20204;-71
2022/03/29 10:57:03;;;;;;;23.83;19.65;;;;;;;;;;5016230;28;20041;-70
2022/03/29 10:59:30;;;;;;;26.15;19.17;;;;;;;;;;5021742;28;20046;-71
2022/03/29 11:02:32;;;;;;;26.58;19.35;;;;;;;;;;5025034;28;20037;-71
2022/03/29 11:05:06;;;;;;;23.73;19.00;;;;;;;;;;4967820;28;20026;-71
2022/03/29 11:07:34;;;;;;;24.90;19.77;;;;;;;;;;4954918;28;20058;-70
2022/03/29 11:10:19;;;;;;;22.67;19.55;;;;;;;;;;4954692;28;20429;-71
2022/03/29 11:12:46;;;;;;;22.35;18.90;;;;;;;;;;4982490;28;20128;-70
2022/03/29 11:15:36;;;;;;;21.38;19.27;;;;;;;;;;4998765;28;20453;-71
2022/03/29 13:32:37;;;;;;;19.67;15.63;;;;;;;;;;5038603;23;20046;-68
2022/03/29 13:35:06;;;;;;;22.58;15.73;;;;;;;;;;4988896;28;20042;-68
2022/03/29 13:37:31;;;;;;;22.73;15.57;;;;;;;;;;4989382;28;20042;-68
2022/03/29 13:39:57;;;;;;;23.33;15.85;;;;;;;;;;4960277;28;20038;-69
2022/03/29 13:42:22;;;;;;;19.45;15.10;;;;;;;;;;4972093;28;20123;-68
2022/03/29 13:44:48;;;;;;;21.88;15.90;;;;;;;;;;4966415;28;20038;-68
2022/03/29 13:47:13;;;;;;;21.75;14.82;;;;;;;;;;4964113;28;20046;-68
2022/03/29 13:49:39;;;;;;;16.77;14.95;;;;;;;;;;4968606;28;20118;-67
2022/03/29 13:52:05;;;;;;;17.42;15.65;;;;;;;;;;4968255;28;20046;-67
2022/03/29 13:54:31;;;;;;;20.02;15.07;;;;;;;;;;4972309;28;20045;-67
2022/03/29 13:56:57;;;;;;;21.10;15.38;;;;;;;;;;4968969;28;20035;-68
2022/03/29 13:59:25;;;;;;;17.13;14.77;;;;;;;;;;4968895;28;20374;-68
2022/03/29 14:01:51;;;;;;;22.02;14.55;;;;;;;;;;4971150;28;20174;-67
2022/03/29 14:04:16;;;;;;;18.85;14.98;;;;;;;;;;4970740;28;20063;-68
2022/03/29 14:06:42;;;;;;;17.30;14.80;;;;;;;;;;4974236;28;20583;-67
2022/03/29 14:09:08;;;;;;;20.90;15.02;;;;;;;;;;4969714;28;20039;-67
2022/03/29 14:11:33;;;;;;;16.73;15.00;;;;;;;;;;4969859;28;20049;-68
2022/03/29 14:13:59;;;;;;;18.50;15.10;;;;;;;;;;4971187;28;20061;-67
2022/03/29 14:16:25;;;;;;;29.20;15.60;;;;;;;;;;4939694;28;20031;-68
2022/03/29 14:18:53;;;;;;;20.45;15.68;;;;;;;;;;4969752;28;20182;-68
2022/03/29 14:21:18;;;;;;;22.52;14.70;;;;;;;;;;4964809;28;20058;-69
2022/03/29 14:23:44;;;;;;;21.48;14.80;;;;;;;;;;4958115;28;20038;-68
2022/03/29 14:26:10;;;;;;;24.55;14.57;;;;;;;;;;4957623;28;20039;-68
2022/03/29 14:28:36;;;;;;;20.50;15.15;;;;;;;;;;4971310;28;20031;-68
2022/03/29 14:31:01;;;;;;;18.42;14.40;;;;;;;;;;4971680;28;20038;-68
2022/03/29 14:33:29;;;;;;;22.55;15.07;;;;;;;;;;4973620;28;20495;-68
2022/03/29 14:35:54;;;;;;;33.20;15.40;;;;;;;;;;4975283;28;20122;-68
2022/03/29 14:38:21;;;;;;;29.70;15.63;;;;;;;;;;4971949;28;20126;-68
2022/03/29 14:40:49;;;;;;;26.95;14.35;;;;;;;;;;4970056;28;20050;-68
2022/03/29 14:43:15;;;;;;;35.78;15.32;;;;;;;;;;4951686;28;20114;-68
2022/03/29 14:45:41;;;;;;;34.15;14.38;;;;;;;;;;4971764;28;20174;-67
2022/03/29 14:48:06;;;;;;;33.50;14.05;;;;;;;;;;4965436;28;20037;-68
2022/03/29 14:50:32;;;;;;;36.95;14.48;;;;;;;;;;4948905;28;20185;-68
2022/03/29 14:52:58;;;;;;;39.97;14.45;;;;;;;;;;4969689;28;20517;-67
2022/03/29 14:55:26;;;;;;;35.92;14.57;;;;;;;;;;4965189;28;20463;-67
2022/03/29 14:57:55;;;;;;;44.40;15.10;;;;;;;;;;4968055;28;20042;-68
2022/03/29 15:00:21;;;;;;;29.20;14.32;;;;;;;;;;4971072;28;20045;-67
2022/03/29 15:02:47;;;;;;;31.02;14.00;;;;;;;;;;4970873;28;20027;-67
2022/03/29 15:05:13;;;;;;;33.05;14.02;;;;;;;;;;4966144;28;20063;-68
2022/03/29 15:07:38;;;;;;;29.40;14.18;;;;;;;;;;4973039;28;20124;-68
2022/03/29 15:10:05;;;;;;;29.92;14.60;;;;;;;;;;4970674;28;20701;-68
2022/03/29 15:12:31;;;;;;;27.30;14.23;;;;;;;;;;4966675;28;20043;-68
2022/03/29 15:14:57;;;;;;;31.80;15.18;;;;;;;;;;4956315;28;20062;-69
2022/03/29 15:17:25;;;;;;;28.50;14.75;;;;;;;;;;4970771;28;20524;-69
2022/03/29 15:19:50;;;;;;;34.03;14.27;;;;;;;;;;4970024;28;20535;-67
2022/03/29 15:22:16;;;;;;;31.58;14.38;;;;;;;;;;4974681;28;20027;-67
2022/03/29 15:24:42;;;;;;;39.42;16.00;;;;;;;;;;4967355;28;20397;-67
2022/03/29 15:27:07;;;;;;;31.65;15.07;;;;;;;;;;4968315;28;20136;-68
2022/03/29 15:29:33;;;;;;;37.15;15.00;;;;;;;;;;4960908;28;20176;-68
2022/03/29 15:31:59;;;;;;;34.88;15.77;;;;;;;;;;4970764;28;20043;-68
2022/03/29 15:34:32;;;;;;;35.88;15.20;;;;;;;;;;4970042;28;20647;-67
2022/03/29 15:37:00;;;;;;;31.70;14.45;;;;;;;;;;4963997;28;20034;-67
2022/03/29 15:39:26;;;;;;;34.92;15.35;;;;;;;;;;4966044;28;20477;-67
2022/03/29 15:41:51;;;;;;;37.35;15.07;;;;;;;;;;4963049;28;20034;-67
2022/03/29 15:44:17;;;;;;;29.42;14.38;;;;;;;;;;4966465;28;20030;-67
2022/03/29 15:46:43;;;;;;;32.40;14.85;;;;;;;;;;4946740;28;20034;-67
2022/03/29 15:49:09;;;;;;;27.13;14.15;;;;;;;;;;4965777;28;20029;-67
2022/03/29 15:51:34;;;;;;;32.17;15.40;;;;;;;;;;4966706;28;20041;-68
2022/03/29 15:54:00;;;;;;;37.72;16.35;;;;;;;;;;4962990;28;20157;-67
2022/03/29 15:56:25;;;;;;;38.92;15.15;;;;;;;;;;4957829;28;20130;-67
2022/03/29 15:58:51;;;;;;;28.92;15.27;;;;;;;;;;4962336;28;20031;-68
2022/03/29 16:01:17;;;;;;;27.70;14.57;;;;;;;;;;4966842;28;20042;-68
2022/03/29 16:03:43;;;;;;;33.03;14.73;;;;;;;;;;4967617;28;20890;-69
2022/03/29 16:06:09;;;;;;;26.10;14.65;;;;;;;;;;4969943;28;20490;-68
2022/03/29 16:08:36;;;;;;;27.98;14.75;;;;;;;;;;4976045;28;20085;-68
2022/03/29 16:11:02;;;;;;;34.92;15.25;;;;;;;;;;4972896;28;20043;-68
2022/03/29 16:13:30;;;;;;;33.97;15.15;;;;;;;;;;4968559;28;20030;-68
2022/03/29 16:15:55;;;;;;;25.92;15.25;;;;;;;;;;4970264;28;20134;-68
2022/03/29 16:18:21;;;;;;;25.08;13.77;;;;;;;;;;4977030;28;20141;-68
2022/03/29 16:20:47;;;;;;;22.00;14.45;;;;;;;;;;4966672;28;20161;-70
2022/03/29 16:23:12;;;;;;;32.50;14.68;;;;;;;;;;4966176;28;20510;-69
2022/03/29 16:25:39;;;;;;;29.33;13.80;;;;;;;;;;4951340;28;20081;-69
2022/03/29 16:28:05;;;;;;;32.85;13.88;;;;;;;;;;4969476;28;20053;-68
2022/03/29 16:30:31;;;;;;;27.13;14.50;;;;;;;;;;4966942;28;20042;-69
2022/03/29 16:32:57;;;;;;;27.05;14.05;;;;;;;;;;4967799;28;20093;-69
2022/03/29 16:35:23;;;;;;;34.25;14.60;;;;;;;;;;4973119;28;20045;-69
2022/03/29 16:37:48;;;;;;;30.05;15.02;;;;;;;;;;4949738;28;20039;-69
2022/03/29 16:40:14;;;;;;;26.00;14.13;;;;;;;;;;4964528;28;20031;-68
2022/03/29 16:42:40;;;;;;;31.48;14.82;;;;;;;;;;4967390;28;20465;-69
2022/03/29 16:45:07;;;;;;;24.27;13.75;;;;;;;;;;4968448;28;20070;-68